createdAt,value
2019-04-25T00:01:42.188Z,56.00
2019-04-25T00:04:12.195Z,55.90
2019-04-25T00:06:42.560Z,56.00
2019-04-25T00:09:12.955Z,56.10
2019-04-25T00:11:43.677Z,55.80
2019-04-25T00:14:13.352Z,55.90
2019-04-25T00:16:44.167Z,55.80
2019-04-25T00:19:13.539Z,56.10
2019-04-25T00:22:02.180Z,56.30
2019-04-25T00:24:49.480Z,56.30
2019-04-25T00:27:18.434Z,56.40
2019-04-25T00:29:46.796Z,56.40
2019-04-25T00:32:14.578Z,56.40
2019-04-25T00:34:44.464Z,56.40
2019-04-25T00:37:13.957Z,56.50
2019-04-25T00:39:44.868Z,56.50
2019-04-25T00:42:13.198Z,56.60
2019-04-25T00:44:43.773Z,56.70
2019-04-25T00:47:12.002Z,56.60
2019-04-25T00:49:42.115Z,56.60
2019-04-25T00:52:11.602Z,56.40
2019-04-25T00:54:41.361Z,56.70
2019-04-25T00:57:14.156Z,56.60
2019-04-25T00:59:45.482Z,57.70
2019-04-25T01:02:15.931Z,59.40
2019-04-25T01:04:45.181Z,60.20
2019-04-25T01:07:13.916Z,60.90
2019-04-25T01:09:42.519Z,60.70
2019-04-25T01:12:11.559Z,62.80
2019-04-25T01:14:42.025Z,63.10
2019-04-25T01:17:11.694Z,62.80
2019-04-25T01:19:40.358Z,65.00
2019-04-25T01:22:08.964Z,64.50
2019-04-25T01:24:36.676Z,67.10
2019-04-25T01:27:05.734Z,69.50
2019-04-25T01:29:34.410Z,70.90
2019-04-25T01:32:04.722Z,71.80
2019-04-25T01:34:40.918Z,71.40
2019-04-25T01:37:17.457Z,71.10
2019-04-25T01:39:51.080Z,71.80
2019-04-25T01:42:30.852Z,73.00
2019-04-25T01:44:59.536Z,74.80
2019-04-25T01:47:28.221Z,74.80
2019-04-25T01:49:56.743Z,75.20
2019-04-25T01:52:25.139Z,76.10
2019-04-25T01:54:55.044Z,77.00
2019-04-25T01:57:24.163Z,76.40
2019-04-25T01:59:54.125Z,78.10
2019-04-25T02:02:24.827Z,77.70
2019-04-25T02:04:56.679Z,77.90
2019-04-25T02:07:23.859Z,76.70
2019-04-25T02:09:54.753Z,75.80
2019-04-25T02:12:24.439Z,76.70
2019-04-25T02:14:54.779Z,78.60
2019-04-25T02:17:24.109Z,78.90
2019-04-25T02:19:54.577Z,79.60
2019-04-25T02:22:24.339Z,81.20
2019-04-25T02:24:55.035Z,81.80
2019-04-25T02:27:24.250Z,80.30
2019-04-25T02:29:55.178Z,82.40
2019-04-25T02:32:24.595Z,82.50
2019-04-25T02:34:58.175Z,81.60
2019-04-25T02:37:25.586Z,81.50
2019-04-25T02:39:57.951Z,80.20
2019-04-25T02:42:24.868Z,80.10
2019-04-25T02:44:56.179Z,79.90
2019-04-25T02:47:25.931Z,80.10
2019-04-25T02:50:11.657Z,80.80
2019-04-25T02:52:44.199Z,78.50
2019-04-25T02:55:28.141Z,78.30
2019-04-25T02:57:44.957Z,79.10
2019-04-25T03:00:24.656Z,78.20
2019-04-25T03:02:54.726Z,77.80
2019-04-25T03:05:25.538Z,77.70
2019-04-25T03:07:54.569Z,76.90
2019-04-25T03:10:26.675Z,77.40
2019-04-25T03:12:54.491Z,77.30
2019-04-25T03:15:24.383Z,77.20
2019-04-25T03:17:54.663Z,77.60
2019-04-25T03:20:28.141Z,77.10
2019-04-25T03:23:00.040Z,76.90
2019-04-25T03:25:29.425Z,77.60
2019-04-25T03:27:59.426Z,77.70
2019-04-25T03:30:28.633Z,77.80
2019-04-25T03:32:57.336Z,77.30
2019-04-25T03:35:26.052Z,78.10
2019-04-25T03:37:54.750Z,78.10
2019-04-25T03:40:23.630Z,78.30
2019-04-25T03:42:53.805Z,78.10
2019-04-25T03:45:23.719Z,78.50
2019-04-25T03:47:53.242Z,78.00
2019-04-25T03:50:23.283Z,78.20
2019-04-25T03:52:53.927Z,78.70
2019-04-25T03:55:24.090Z,78.10
2019-04-25T03:57:53.921Z,78.30
2019-04-25T04:00:24.118Z,78.60
2019-04-25T04:02:53.851Z,79.10
2019-04-25T04:05:23.869Z,79.30
2019-04-25T04:07:53.532Z,79.50
2019-04-25T04:10:23.274Z,79.70
2019-04-25T04:12:52.326Z,79.40
2019-04-25T04:15:20.996Z,79.60
2019-04-25T04:17:50.368Z,80.90
2019-04-25T04:20:20.409Z,82.10
2019-04-25T04:22:57.300Z,83.30
2019-04-25T04:25:26.453Z,82.60
2019-04-25T04:27:54.163Z,83.40
2019-04-25T04:30:24.060Z,84.00
2019-04-25T04:32:53.686Z,83.20
2019-04-25T04:35:23.537Z,83.40
2019-04-25T04:37:54.088Z,83.20
2019-04-25T04:40:24.285Z,83.20
2019-04-25T04:42:53.486Z,85.30
2019-04-25T04:45:21.335Z,85.90
2019-04-25T04:47:49.725Z,87.10
2019-04-25T04:50:18.724Z,87.60
2019-04-25T04:52:47.814Z,88.20
2019-04-25T04:55:18.288Z,89.20
2019-04-25T04:57:47.273Z,89.70
2019-04-25T05:00:16.795Z,88.90
2019-04-25T05:03:04.374Z,88.60
2019-04-25T05:05:50.288Z,89.50
2019-04-25T05:08:20.846Z,90.20
2019-04-25T05:10:49.796Z,90.30
2019-04-25T05:13:18.198Z,88.60
2019-04-25T05:15:46.907Z,89.20
2019-04-25T05:18:20.766Z,88.30
2019-04-25T05:20:46.264Z,87.60
2019-04-25T05:23:16.046Z,88.90
2019-04-25T05:25:45.544Z,89.30
2019-04-25T05:28:16.202Z,88.10
2019-04-25T05:30:46.652Z,89.00
2019-04-25T05:33:18.657Z,89.20
2019-04-25T05:35:46.233Z,88.60
2019-04-25T05:38:15.410Z,87.80
2019-04-25T05:40:59.152Z,87.80
2019-04-25T05:43:29.120Z,88.10
2019-04-25T05:45:58.138Z,87.90
2019-04-25T05:48:26.545Z,87.70
2019-04-25T05:50:55.258Z,85.30
2019-04-25T05:53:24.217Z,84.40
2019-04-25T05:55:54.181Z,84.60
2019-04-25T05:58:24.574Z,84.40
2019-04-25T06:00:54.361Z,82.60
2019-04-25T06:03:24.923Z,81.60
2019-04-25T06:05:53.981Z,80.90
2019-04-25T06:08:25.641Z,80.10
2019-04-25T06:10:59.120Z,80.50
2019-04-25T06:13:43.204Z,80.10
2019-04-25T06:16:16.122Z,80.30
2019-04-25T06:18:49.759Z,79.10
2019-04-25T06:21:19.160Z,79.60
2019-04-25T06:23:54.446Z,78.90
2019-04-25T06:26:33.298Z,77.90
2019-04-25T06:28:59.028Z,76.90
2019-04-25T06:31:26.419Z,77.10
2019-04-25T06:33:54.240Z,76.70
2019-04-25T06:36:24.269Z,77.00
2019-04-25T06:38:54.191Z,76.10
2019-04-25T06:41:24.685Z,75.80
2019-04-25T06:43:54.939Z,75.10
2019-04-25T06:46:41.577Z,75.10
2019-04-25T06:49:18.183Z,73.80
2019-04-25T06:51:55.881Z,74.10
2019-04-25T06:54:25.785Z,73.40
2019-04-25T06:56:54.893Z,73.30
2019-04-25T06:59:25.899Z,73.50
2019-04-25T07:01:55.973Z,73.50
2019-04-25T07:04:26.266Z,70.70
2019-04-25T07:06:54.600Z,71.40
2019-04-25T07:09:26.817Z,70.00
2019-04-25T07:11:53.920Z,71.00
2019-04-25T07:14:25.442Z,70.50
2019-04-25T07:16:53.330Z,69.80
2019-04-25T07:19:22.072Z,70.20
2019-04-25T07:21:50.732Z,70.00
2019-04-25T07:24:19.355Z,70.00
2019-04-25T07:27:05.885Z,68.90
2019-04-25T07:29:36.128Z,68.90
2019-04-25T07:32:15.445Z,69.00
2019-04-25T07:34:44.230Z,69.20
2019-04-25T07:37:13.245Z,68.30
2019-04-25T07:39:41.943Z,66.30
2019-04-25T07:42:10.558Z,65.60
2019-04-25T07:44:49.655Z,65.30
2019-04-25T07:47:09.566Z,65.10
2019-04-25T07:49:38.164Z,65.70
2019-04-25T07:52:06.764Z,66.10
2019-04-25T07:54:35.690Z,65.00
2019-04-25T07:57:05.541Z,64.60
2019-04-25T07:59:35.336Z,63.50
2019-04-25T08:02:04.546Z,63.80
2019-04-25T08:04:34.859Z,62.60
2019-04-25T08:07:04.172Z,61.10
2019-04-25T08:09:35.383Z,61.80
2019-04-25T08:12:03.386Z,61.60
2019-04-25T08:14:34.191Z,61.80
2019-04-25T08:17:04.470Z,60.80
2019-04-25T08:19:33.540Z,60.80
2019-04-25T08:22:03.624Z,59.80
2019-04-25T08:24:34.611Z,57.30
2019-04-25T08:27:03.702Z,57.60
2019-04-25T08:29:32.492Z,57.20
2019-04-25T08:32:04.485Z,55.50
2019-04-25T08:34:35.727Z,56.00
2019-04-25T08:37:04.081Z,54.60
2019-04-25T08:39:34.087Z,52.20
2019-04-25T08:42:03.530Z,52.20
2019-04-25T08:44:33.079Z,53.40
2019-04-25T08:47:04.394Z,54.50
2019-04-25T08:49:45.764Z,53.80
2019-04-25T08:52:14.012Z,53.00
2019-04-25T08:54:47.674Z,51.60
2019-04-25T08:57:25.588Z,51.70
2019-04-25T08:59:55.722Z,51.30
2019-04-25T09:02:36.496Z,51.90
2019-04-25T09:05:26.935Z,50.80
2019-04-25T09:07:55.656Z,50.00
2019-04-25T09:10:24.335Z,49.50
2019-04-25T09:12:53.749Z,49.10
2019-04-25T09:15:24.196Z,48.70
2019-04-25T09:17:54.755Z,47.30
2019-04-25T09:20:23.627Z,48.60
2019-04-25T09:22:54.109Z,48.70
2019-04-25T09:25:23.840Z,49.70
2019-04-25T09:27:54.187Z,49.70
2019-04-25T09:30:24.061Z,49.70
2019-04-25T09:32:53.410Z,49.00
2019-04-25T09:35:23.586Z,50.10
2019-04-25T09:37:53.535Z,48.00
2019-04-25T09:40:24.025Z,46.90
2019-04-25T09:42:53.734Z,46.40
2019-04-25T09:45:29.959Z,47.40
2019-04-25T09:48:00.229Z,47.40
2019-04-25T09:50:47.768Z,45.80
2019-04-25T09:53:23.332Z,45.30
2019-04-25T09:55:49.580Z,45.40
2019-04-25T09:58:25.922Z,45.50
2019-04-25T10:00:58.951Z,46.00
2019-04-25T10:03:27.647Z,45.90
2019-04-25T10:05:55.454Z,45.10
2019-04-25T10:08:24.278Z,45.40
2019-04-25T10:10:53.648Z,44.80
2019-04-25T10:13:23.513Z,44.10
2019-04-25T10:15:59.499Z,44.00
2019-04-25T10:18:28.205Z,44.00
2019-04-25T10:20:55.911Z,43.70
2019-04-25T10:23:24.506Z,42.80
2019-04-25T10:25:53.749Z,43.50
2019-04-25T10:28:23.398Z,41.80
2019-04-25T10:30:53.146Z,42.00
2019-04-25T10:33:24.275Z,42.00
2019-04-25T10:35:58.956Z,42.10
2019-04-25T10:38:28.164Z,42.30
2019-04-25T10:40:56.805Z,42.20
2019-04-25T10:43:24.450Z,42.40
2019-04-25T10:45:54.977Z,42.10
2019-04-25T10:48:24.027Z,41.00
2019-04-25T10:50:55.413Z,41.00
2019-04-25T10:53:25.036Z,41.50
2019-04-25T10:55:53.589Z,40.80
2019-04-25T10:58:21.219Z,41.00
2019-04-25T11:00:51.552Z,41.10
2019-04-25T11:03:33.902Z,39.50
2019-04-25T11:06:03.958Z,40.00
2019-04-25T11:08:34.030Z,38.50
2019-04-25T11:11:03.731Z,38.70
2019-04-25T11:13:33.785Z,37.80
2019-04-25T11:16:03.618Z,38.50
2019-04-25T11:18:33.919Z,38.50
2019-04-25T11:21:05.771Z,38.80
2019-04-25T11:23:33.044Z,37.10
2019-04-25T11:26:00.682Z,36.60
2019-04-25T11:28:29.293Z,36.80
2019-04-25T11:30:57.090Z,35.90
2019-04-25T11:33:25.902Z,36.40
2019-04-25T11:35:56.304Z,35.00
2019-04-25T11:38:33.787Z,35.20
2019-04-25T11:41:04.303Z,35.20
2019-04-25T11:43:33.761Z,34.60
2019-04-25T11:46:04.883Z,35.70
2019-04-25T11:48:34.073Z,35.70
2019-04-25T11:51:03.679Z,34.50
2019-04-25T11:53:33.876Z,34.30
2019-04-25T11:56:03.726Z,34.00
2019-04-25T11:58:32.521Z,33.80
2019-04-25T12:01:00.212Z,34.00
2019-04-25T12:03:28.858Z,32.70
2019-04-25T12:05:57.545Z,33.10
2019-04-25T12:08:25.191Z,32.70
2019-04-25T12:10:54.813Z,32.10
2019-04-25T12:13:24.278Z,31.00
2019-04-25T12:15:54.537Z,31.10
2019-04-25T12:18:23.401Z,30.80
2019-04-25T12:20:52.063Z,30.30
2019-04-25T12:23:20.719Z,31.20
2019-04-25T12:25:48.387Z,31.30
2019-04-25T12:28:17.058Z,31.20
2019-04-25T12:30:47.392Z,31.20
2019-04-25T12:33:21.031Z,31.30
2019-04-25T12:35:47.819Z,31.60
2019-04-25T12:38:16.601Z,31.30
2019-04-25T12:40:46.153Z,31.50
2019-04-25T12:43:15.679Z,32.00
2019-04-25T12:45:47.681Z,30.70
2019-04-25T12:48:16.267Z,31.20
2019-04-25T12:50:46.245Z,30.50
2019-04-25T12:53:15.067Z,31.20
2019-04-25T12:55:44.262Z,31.20
2019-04-25T12:58:13.569Z,31.00
2019-04-25T13:00:51.217Z,31.50
2019-04-25T13:03:14.180Z,30.10
2019-04-25T13:05:44.267Z,30.10
2019-04-25T13:08:14.285Z,31.20
2019-04-25T13:10:44.514Z,30.40
2019-04-25T13:13:15.040Z,30.70
2019-04-25T13:15:45.841Z,29.80
2019-04-25T13:18:14.020Z,30.80
2019-04-25T13:20:41.659Z,29.60
2019-04-25T13:23:10.711Z,30.70
2019-04-25T13:25:39.451Z,29.50
2019-04-25T13:28:09.794Z,29.70
2019-04-25T13:30:40.084Z,29.80
2019-04-25T13:33:16.138Z,29.90
2019-04-25T13:35:49.067Z,29.10
2019-04-25T13:38:17.742Z,28.90
2019-04-25T13:40:46.354Z,29.00
2019-04-25T13:43:14.958Z,28.70
2019-04-25T13:45:43.664Z,28.80
2019-04-25T13:48:13.221Z,28.70
2019-04-25T13:50:41.948Z,29.00
2019-04-25T13:53:10.556Z,27.90
2019-04-25T13:55:39.238Z,28.70
2019-04-25T13:58:08.486Z,27.50
2019-04-25T14:00:37.396Z,27.90
2019-04-25T14:03:06.068Z,27.20
2019-04-25T14:05:35.332Z,27.30
2019-04-25T14:08:04.111Z,26.70
2019-04-25T14:10:34.227Z,26.60
2019-04-25T14:13:03.568Z,26.40
2019-04-25T14:15:34.292Z,26.40
2019-04-25T14:18:19.774Z,26.00
2019-04-25T14:20:50.148Z,25.20
2019-04-25T14:23:18.901Z,23.00
2019-04-25T14:25:47.730Z,20.40
2019-04-25T14:28:16.602Z,18.50
2019-04-25T14:30:45.360Z,17.10
2019-04-25T14:33:14.158Z,15.70
2019-04-25T14:35:42.908Z,15.20
2019-04-25T14:38:18.240Z,14.10
2019-04-25T14:40:43.911Z,12.70
2019-04-25T14:43:12.693Z,12.50
2019-04-25T14:45:44.785Z,13.60
2019-04-25T14:48:11.685Z,11.80
2019-04-25T14:50:40.481Z,10.70
2019-04-25T14:53:09.117Z,9.90
2019-04-25T14:55:42.339Z,10.50
2019-04-25T14:58:15.689Z,11.60
2019-04-25T15:00:46.258Z,12.00
2019-04-25T15:03:15.109Z,10.70
2019-04-25T15:05:45.208Z,10.20
2019-04-25T15:08:13.869Z,9.60
2019-04-25T15:10:42.549Z,9.30
2019-04-25T15:13:11.209Z,10.10
2019-04-25T15:15:39.965Z,9.80
2019-04-25T15:18:08.665Z,10.10
2019-04-25T15:20:37.328Z,10.50
2019-04-25T15:23:05.980Z,10.80
2019-04-25T15:25:34.622Z,11.10
2019-04-25T15:28:03.220Z,10.60
2019-04-25T15:30:33.531Z,10.10
2019-04-25T15:33:02.221Z,10.60
2019-04-25T15:35:49.096Z,10.40
2019-04-25T15:38:19.418Z,9.50
2019-04-25T15:40:52.445Z,9.30
2019-04-25T15:43:26.332Z,9.40
2019-04-25T15:46:05.713Z,10.00
2019-04-25T15:48:34.332Z,9.60
2019-04-25T15:51:03.001Z,10.00
2019-04-25T15:53:31.653Z,11.30
2019-04-25T15:56:00.323Z,12.40
2019-04-25T15:58:29.787Z,11.60
2019-04-25T16:00:58.643Z,11.80
2019-04-25T16:03:28.176Z,12.20
2019-04-25T16:05:57.017Z,11.80
2019-04-25T16:08:25.614Z,11.90
2019-04-25T16:10:54.362Z,10.90
2019-04-25T16:13:22.992Z,11.80
2019-04-25T16:15:51.770Z,11.00
2019-04-25T16:18:20.364Z,11.10
2019-04-25T16:20:48.962Z,11.00
2019-04-25T16:23:17.574Z,12.10
2019-04-25T16:25:46.173Z,11.40
2019-04-25T16:28:14.856Z,11.20
2019-04-25T16:30:43.527Z,11.50
2019-04-25T16:33:12.208Z,12.40
2019-04-25T16:35:40.801Z,12.80
2019-04-25T16:38:09.796Z,12.80
2019-04-25T16:40:38.461Z,13.40
2019-04-25T16:43:08.712Z,14.20
2019-04-25T16:45:39.032Z,15.80
2019-04-25T16:48:07.715Z,18.70
2019-04-25T16:50:36.538Z,19.70
2019-04-25T16:53:05.270Z,20.90
2019-04-25T16:55:34.279Z,20.80
2019-04-25T16:58:03.373Z,22.30
2019-04-25T17:00:42.623Z,23.30
2019-04-25T17:03:12.404Z,23.70
2019-04-25T17:05:41.056Z,23.80
2019-04-25T17:08:09.776Z,24.40
2019-04-25T17:10:39.463Z,24.60
2019-04-25T17:13:09.216Z,25.20
2019-04-25T17:15:48.492Z,25.40
2019-04-25T17:18:21.677Z,25.60
2019-04-25T17:20:57.710Z,26.30
2019-04-25T17:23:26.410Z,27.00
2019-04-25T17:25:55.070Z,26.90
2019-04-25T17:28:25.477Z,27.20
2019-04-25T17:30:55.787Z,27.10
2019-04-25T17:33:35.680Z,27.60
2019-04-25T17:36:06.003Z,27.40
2019-04-25T17:38:39.834Z,27.80
2019-04-25T17:41:08.545Z,27.60
2019-04-25T17:43:37.221Z,27.70
2019-04-25T17:46:07.090Z,28.00
2019-04-25T17:48:36.156Z,28.10
2019-04-25T17:51:04.857Z,28.10
2019-04-25T17:53:34.354Z,28.20
2019-04-25T17:56:03.107Z,28.60
2019-04-25T17:58:32.275Z,28.60
2019-04-25T18:01:01.971Z,29.30
2019-04-25T18:03:30.654Z,29.80
2019-04-25T18:05:59.371Z,30.10
2019-04-25T18:08:28.050Z,30.00
2019-04-25T18:10:56.747Z,30.00
2019-04-25T18:13:25.428Z,30.30
2019-04-25T18:16:12.041Z,30.10
2019-04-25T18:18:43.423Z,30.70
2019-04-25T18:21:12.312Z,30.60
2019-04-25T18:23:58.971Z,31.60
2019-04-25T18:26:39.171Z,31.10
2019-04-25T18:29:09.648Z,31.60
2019-04-25T18:31:38.335Z,31.50
2019-04-25T18:34:07.610Z,31.30
2019-04-25T18:36:49.911Z,31.50
2019-04-25T18:39:32.427Z,32.00
2019-04-25T18:42:07.996Z,32.60
2019-04-25T18:44:36.652Z,32.70
2019-04-25T18:47:05.381Z,32.60
2019-04-25T18:49:33.090Z,33.10
2019-04-25T18:52:03.346Z,33.40
2019-04-25T18:54:37.335Z,33.80
2019-04-25T18:57:10.515Z,34.20
2019-04-25T18:59:52.810Z,34.50
2019-04-25T19:02:23.151Z,34.90
2019-04-25T19:04:53.472Z,35.40
2019-04-25T19:07:22.925Z,35.50
2019-04-25T19:09:51.919Z,35.50
2019-04-25T19:12:19.636Z,36.00
2019-04-25T19:14:48.392Z,36.40
2019-04-25T19:17:16.032Z,36.50
2019-04-25T19:19:45.582Z,36.50
2019-04-25T19:22:14.381Z,36.80
2019-04-25T19:24:45.052Z,36.70
2019-04-25T19:27:23.157Z,37.00
2019-04-25T19:29:42.536Z,37.30
2019-04-25T19:32:10.254Z,37.40
2019-04-25T19:34:38.860Z,37.90
2019-04-25T19:37:06.575Z,38.10
2019-04-25T19:39:36.921Z,37.90
2019-04-25T19:42:19.402Z,38.00
2019-04-25T19:44:48.088Z,38.00
2019-04-25T19:47:15.888Z,38.60
2019-04-25T19:49:44.997Z,38.70
2019-04-25T19:52:13.752Z,39.00
2019-04-25T19:54:41.945Z,38.60
2019-04-25T19:57:10.392Z,38.70
2019-04-25T19:59:38.727Z,38.80
2019-04-25T20:02:08.792Z,38.90
2019-04-25T20:04:39.112Z,38.90
2019-04-25T20:07:12.421Z,38.60
2019-04-25T20:09:45.460Z,38.60
2019-04-25T20:12:14.183Z,38.70
2019-04-25T20:14:43.033Z,39.30
2019-04-25T20:17:11.958Z,39.10
2019-04-25T20:19:39.772Z,39.30
2019-04-25T20:22:08.406Z,39.30
2019-04-25T20:24:36.397Z,39.50
2019-04-25T20:27:05.086Z,40.10
2019-04-25T20:29:32.813Z,39.50
2019-04-25T20:32:01.489Z,40.00
2019-04-25T20:34:29.932Z,39.80
2019-04-25T20:36:58.260Z,40.20
2019-04-25T20:39:27.849Z,40.40
2019-04-25T20:41:56.704Z,40.60
2019-04-25T20:44:24.429Z,40.30
2019-04-25T20:46:53.109Z,40.30
2019-04-25T20:49:20.838Z,40.20
2019-04-25T20:51:50.536Z,40.10
2019-04-25T20:54:19.407Z,40.30
2019-04-25T20:56:48.183Z,40.70
2019-04-25T20:59:17.202Z,40.30
2019-04-25T21:01:45.589Z,40.40
2019-04-25T21:04:21.339Z,40.10
2019-04-25T21:06:50.506Z,40.70
2019-04-25T21:09:19.381Z,41.70
2019-04-25T21:11:47.693Z,40.50
2019-04-25T21:14:17.758Z,40.60
2019-04-25T21:16:51.859Z,40.60
2019-04-25T21:19:34.479Z,40.70
2019-04-25T21:22:03.060Z,40.70
2019-04-25T21:24:30.775Z,40.50
2019-04-25T21:26:59.380Z,41.30
2019-04-25T21:29:27.086Z,41.30
2019-04-25T21:31:56.737Z,41.10
2019-04-25T21:34:28.059Z,40.80
2019-04-25T21:36:57.798Z,40.80
2019-04-25T21:39:28.482Z,41.30
2019-04-25T21:41:59.753Z,41.10
2019-04-25T21:44:28.676Z,41.30
2019-04-25T21:46:56.494Z,41.80
2019-04-25T21:49:25.475Z,41.70
2019-04-25T21:51:54.032Z,41.70
2019-04-25T21:54:23.412Z,41.30
2019-04-25T21:56:53.304Z,41.60
2019-04-25T21:59:22.612Z,41.60
2019-04-25T22:01:51.394Z,41.70
2019-04-25T22:04:20.086Z,41.50
2019-04-25T22:06:49.068Z,41.50
2019-04-25T22:09:19.677Z,41.50
2019-04-25T22:11:48.747Z,41.50
2019-04-25T22:14:17.635Z,41.70
2019-04-25T22:16:46.623Z,41.50
2019-04-25T22:19:15.493Z,41.40
2019-04-25T22:21:44.470Z,42.10
2019-04-25T22:24:16.588Z,41.80
2019-04-25T22:26:43.177Z,41.40
2019-04-25T22:29:12.292Z,41.50
2019-04-25T22:31:51.192Z,41.90
2019-04-25T22:34:21.721Z,41.60
2019-04-25T22:36:50.389Z,41.80
2019-04-25T22:39:18.721Z,41.80
2019-04-25T22:41:48.802Z,42.10
2019-04-25T22:44:19.573Z,41.20
2019-04-25T22:46:48.452Z,41.70
2019-04-25T22:49:16.857Z,41.30
2019-04-25T22:51:45.519Z,41.50
2019-04-25T22:54:14.479Z,41.20
2019-04-25T22:56:42.793Z,41.40
2019-04-25T22:59:11.891Z,41.20
2019-04-25T23:01:44.563Z,41.30
2019-04-25T23:04:29.941Z,41.70
2019-04-25T23:06:58.693Z,41.80
2019-04-25T23:09:26.386Z,41.90
2019-04-25T23:11:55.155Z,42.40
2019-04-25T23:14:24.029Z,41.90
2019-04-25T23:16:52.441Z,42.00
2019-04-25T23:19:21.024Z,41.80
2019-04-25T23:21:49.974Z,42.00
2019-04-25T23:24:20.012Z,42.10
2019-04-25T23:26:53.669Z,42.30
2019-04-25T23:29:22.292Z,41.90
2019-04-25T23:31:50.671Z,42.20
2019-04-25T23:34:19.533Z,42.40
2019-04-25T23:36:47.928Z,42.10
2019-04-25T23:39:16.318Z,42.40
2019-04-25T23:41:44.718Z,42.50
2019-04-25T23:44:13.192Z,42.60
2019-04-25T23:46:42.572Z,42.30
2019-04-25T23:49:10.989Z,42.50
2019-04-25T23:51:39.393Z,42.30
2019-04-25T23:54:08.860Z,42.20
2019-04-25T23:56:37.604Z,42.30
2019-04-25T23:59:07.372Z,42.60
